Time;durP1;ratioP1;P1;durP2;ratioP2;P2;SDS_P1;SDS_P2;PMS_P1;PMS_P2;Temp;Humidity;BMP_temperature;BMP_pressure;BME280_temperature;BME280_humidity;BME280_pressure;Samples;Min_cycle;Max_cycle;Signal;HPM_P1;HPM_P2
2021/09/08 00:08:44;;;;;;;13.93;8.45;;;16.90;99.90;;;;;;6645438;89;20215;-78
2021/09/08 00:18:45;;;;;;;15.32;8.48;;;16.70;99.90;;;;;;6642539;89;21072;-78
2021/09/08 00:28:45;;;;;;;15.57;8.85;;;16.60;99.90;;;;;;6651825;89;20250;-76
2021/09/08 00:38:46;;;;;;;15.90;8.20;;;16.40;99.90;;;;;;6665706;89;20346;-79
2021/09/08 00:48:46;;;;;;;13.38;8.18;;;16.30;99.90;;;;;;6669593;89;20293;-78
2021/09/08 00:58:47;;;;;;;14.27;8.18;;;16.30;99.90;;;;;;6663380;89;20768;-78
2021/09/08 01:08:47;;;;;;;12.60;7.93;;;16.20;99.90;;;;;;6663967;89;20620;-78
2021/09/08 01:18:48;;;;;;;15.68;8.68;;;16.20;99.90;;;;;;6657626;89;20177;-78
2021/09/08 01:28:48;;;;;;;14.98;8.43;;;16.20;99.90;;;;;;6662380;89;20223;-78
2021/09/08 01:38:49;;;;;;;13.15;8.43;;;16.20;99.90;;;;;;6668207;89;20196;-77
2021/09/08 01:48:50;;;;;;;16.90;8.57;;;15.90;99.90;;;;;;6657246;89;20739;-77
2021/09/08 01:58:51;;;;;;;16.42;8.73;;;15.70;99.90;;;;;;6660907;89;20217;-77
2021/09/08 02:08:59;;;;;;;14.95;8.93;;;15.60;99.90;;;;;;6660194;89;20680;-77
2021/09/08 02:19:00;;;;;;;14.15;8.60;;;15.40;99.90;;;;;;6657789;89;20205;-77
2021/09/08 02:29:01;;;;;;;16.50;8.60;;;15.50;99.90;;;;;;6655838;89;20213;-77
2021/09/08 02:39:01;;;;;;;14.95;8.50;;;15.50;99.90;;;;;;6643957;89;20184;-76
2021/09/08 02:49:02;;;;;;;17.83;9.18;;;15.60;99.90;;;;;;6658870;89;20244;-76
2021/09/08 02:59:03;;;;;;;19.15;9.10;;;15.40;99.90;;;;;;6643038;89;20212;-76
2021/09/08 03:09:03;;;;;;;18.52;9.80;;;15.20;99.90;;;;;;6654510;89;20322;-77
2021/09/08 03:19:04;;;;;;;17.00;8.98;;;15.20;99.90;;;;;;6652676;89;20652;-77
2021/09/08 03:29:04;;;;;;;15.82;9.23;;;15.20;99.90;;;;;;6642364;89;20204;-77
2021/09/08 03:39:05;;;;;;;17.95;9.20;;;15.00;99.90;;;;;;6663010;89;20181;-76
2021/09/08 03:49:05;;;;;;;13.88;8.50;;;15.40;99.90;;;;;;6653132;89;20239;-77
2021/09/08 03:59:06;;;;;;;16.30;9.35;;;15.00;99.90;;;;;;6663729;89;20192;-77
2021/09/08 04:09:07;;;;;;;15.23;9.55;;;15.00;99.90;;;;;;6663153;89;20187;-77
2021/09/08 04:19:07;;;;;;;15.13;8.80;;;14.90;99.90;;;;;;6652196;89;20379;-76
2021/09/08 04:29:08;;;;;;;16.13;9.00;;;15.00;99.90;;;;;;6652454;89;20212;-76
2021/09/08 04:39:08;;;;;;;14.63;8.77;;;14.90;99.90;;;;;;6638243;89;20259;-77
2021/09/08 04:49:09;;;;;;;14.70;8.35;;;14.80;99.90;;;;;;6651293;89;20307;-76
2021/09/08 04:59:09;;;;;;;14.43;8.57;;;14.70;99.90;;;;;;6648688;89;20229;-75
2021/09/08 05:09:10;;;;;;;18.23;9.68;;;14.80;99.90;;;;;;6639217;89;21169;-76
2021/09/08 05:19:10;;;;;;;17.75;8.63;;;14.90;99.90;;;;;;6637291;89;20180;-76
2021/09/08 05:29:11;;;;;;;15.07;9.57;;;14.80;99.90;;;;;;6653090;89;20218;-76
2021/09/08 05:39:11;;;;;;;18.90;10.25;;;14.80;99.90;;;;;;6661500;89;20224;-76
2021/09/08 05:49:12;;;;;;;17.45;9.80;;;14.80;99.90;;;;;;6662432;89;20206;-75
2021/09/08 05:59:12;;;;;;;16.75;10.00;;;15.00;99.90;;;;;;6664902;89;20334;-75
2021/09/08 06:09:13;;;;;;;16.02;10.25;;;15.10;99.90;;;;;;6664413;89;20217;-76
2021/09/08 06:19:13;;;;;;;17.65;10.45;;;15.30;99.90;;;;;;6664582;89;20213;-74
2021/09/08 06:29:14;;;;;;;15.90;9.70;;;15.80;99.90;;;;;;6651895;89;20212;-76
2021/09/08 06:39:15;;;;;;;17.05;9.90;;;16.20;99.90;;;;;;6630846;89;20193;-76
2021/09/08 06:49:16;;;;;;;18.00;9.18;;;16.70;99.90;;;;;;6630388;89;20205;-76
2021/09/08 06:59:16;;;;;;;16.70;8.75;;;17.20;99.90;;;;;;6630261;89;20223;-76
2021/09/08 07:09:17;;;;;;;17.48;8.55;;;17.80;99.90;;;;;;6630987;89;20260;-75
2021/09/08 07:19:17;;;;;;;18.67;8.07;;;18.30;99.90;;;;;;6631561;89;20387;-76
2021/09/08 07:29:18;;;;;;;13.48;8.27;;;18.90;99.90;;;;;;6636616;89;20229;-76
2021/09/08 07:39:19;;;;;;;16.40;8.20;;;19.20;99.90;;;;;;6647557;89;20393;-77
2021/09/08 07:49:19;;;;;;;16.50;8.87;;;19.90;99.90;;;;;;6647496;89;20258;-76
2021/09/08 07:59:20;;;;;;;12.23;7.75;;;20.20;99.90;;;;;;6647742;89;20211;-76
2021/09/08 08:09:20;;;;;;;11.85;7.82;;;20.90;99.90;;;;;;6647506;89;20270;-77
2021/09/08 08:19:21;;;;;;;12.43;7.57;;;21.40;99.90;;;;;;6651430;89;20212;-78
2021/09/08 08:29:21;;;;;;;13.82;7.82;;;21.90;99.90;;;;;;6647629;88;20204;-77
2021/09/08 08:39:22;;;;;;;12.35;7.28;;;22.40;99.90;;;;;;6635321;89;20188;-78
2021/09/08 08:49:23;;;;;;;12.13;7.00;;;23.40;99.90;;;;;;6635572;89;20200;-77
2021/09/08 08:59:23;;;;;;;10.90;7.17;;;23.70;99.90;;;;;;6639491;89;20502;-77
2021/09/08 09:09:24;;;;;;;12.98;7.45;;;23.50;99.90;;;;;;6656016;89;20947;-78
2021/09/08 09:19:25;;;;;;;13.65;7.82;;;23.90;99.90;;;;;;6646399;89;20181;-77
2021/09/08 09:29:25;;;;;;;14.40;7.05;;;25.40;99.90;;;;;;6650366;89;20316;-78
2021/09/08 09:39:34;;;;;;;10.50;7.15;;;26.00;99.90;;;;;;6638386;89;20645;-77
2021/09/08 09:49:35;;;;;;;12.02;7.90;;;25.70;99.90;;;;;;6637545;89;20195;-77
2021/09/08 09:59:36;;;;;;;12.93;7.70;;;25.70;99.90;;;;;;6636669;89;20630;-78
2021/09/08 10:09:37;;;;;;;11.90;7.13;;;26.70;99.90;;;;;;6637529;89;20237;-77
2021/09/08 10:19:40;;;;;;;12.50;7.30;;;27.00;99.90;;;;;;6637394;89;20203;-77
2021/09/08 10:29:41;;;;;;;9.55;7.00;;;27.40;99.90;;;;;;6654366;89;20207;-77
2021/09/08 10:39:42;;;;;;;10.75;7.55;;;28.70;98.40;;;;;;6655893;89;20246;-78
2021/09/08 10:49:42;;;;;;;10.55;7.70;;;29.10;98.10;;;;;;6657488;89;20648;-78
2021/09/08 11:00:01;;;;;;;11.73;7.72;;;28.40;96.00;;;;;;6644351;89;20223;-77
2021/09/08 11:10:01;;;;;;;15.13;7.60;;;28.50;96.90;;;;;;6656251;89;20224;-78
2021/09/08 11:20:03;;;;;;;10.30;7.20;;;29.40;94.40;;;;;;6657382;89;20209;-78
2021/09/08 11:30:13;;;;;;;;;;;28.90;93.40;;;;;;6640955;89;20720;-78
2021/09/08 11:40:14;;;;;;;11.43;7.05;;;30.00;92.20;;;;;;6656705;89;20053;-78
2021/09/08 11:50:14;;;;;;;9.93;7.20;;;30.20;92.30;;;;;;6660131;89;20643;-78
2021/09/08 12:00:15;;;;;;;12.25;7.30;;;30.30;91.80;;;;;;6662910;89;20238;-78
2021/09/08 12:10:16;;;;;;;10.20;7.03;;;30.20;90.40;;;;;;6662823;89;20725;-78
2021/09/08 12:20:22;;;;;;;7.65;5.97;;;30.40;88.70;;;;;;6664258;89;20705;-78
2021/09/08 12:30:24;;;;;;;9.30;6.60;;;31.00;86.70;;;;;;6663209;89;20199;-79
2021/09/08 12:40:25;;;;;;;9.02;6.40;;;30.70;85.90;;;;;;6667685;89;20206;-78
2021/09/08 12:50:25;;;;;;;10.68;6.75;;;29.70;85.00;;;;;;6666074;89;20246;-79
2021/09/08 13:00:26;;;;;;;10.75;6.97;;;29.10;86.10;;;;;;6665036;89;20624;-78
2021/09/08 13:10:26;;;;;;;9.52;6.70;;;30.30;86.00;;;;;;6664501;89;20225;-78
2021/09/08 13:20:27;;;;;;;12.15;6.97;;;30.30;84.20;;;;;;6663999;89;20242;-79
2021/09/08 13:30:27;;;;;;;12.68;6.43;;;31.20;83.40;;;;;;6668719;89;20207;-79
2021/09/08 13:40:28;;;;;;;9.90;6.40;;;31.50;83.80;;;;;;6656210;89;20320;-79
2021/09/08 13:50:29;;;;;;;8.63;6.00;;;30.40;83.70;;;;;;6660879;89;20328;-79
2021/09/08 14:00:29;;;;;;;7.50;5.97;;;30.10;81.80;;;;;;6661579;89;20217;-79
2021/09/08 14:10:32;;;;;;;11.30;6.50;;;30.20;81.60;;;;;;6647848;89;20820;-79
2021/09/08 14:20:33;;;;;;;8.52;6.20;;;30.50;81.80;;;;;;6649284;89;20183;-78
2021/09/08 14:30:34;;;;;;;10.65;5.93;;;30.00;79.50;;;;;;6664058;89;20290;-79
2021/09/08 14:40:35;;;;;;;9.27;5.68;;;29.70;78.40;;;;;;6663875;89;20217;-78
2021/09/08 14:50:35;;;;;;;9.25;6.10;;;29.80;81.00;;;;;;6664035;89;20944;-79
2021/09/08 15:00:36;;;;;;;10.50;6.30;;;29.90;80.00;;;;;;6662820;89;20217;-79
2021/09/08 15:10:36;;;;;;;12.30;6.10;;;30.30;79.50;;;;;;6662357;89;20188;-78
2021/09/08 15:20:37;;;;;;;9.68;5.68;;;30.10;79.30;;;;;;6662312;89;20693;-78
2021/09/08 15:30:38;;;;;;;7.45;4.80;;;30.30;79.90;;;;;;6663456;88;20253;-78
2021/09/08 15:40:38;;;;;;;6.55;4.95;;;30.50;74.00;;;;;;6663699;89;20405;-78
2021/09/08 15:50:39;;;;;;;7.77;5.53;;;29.80;74.20;;;;;;6661716;89;20778;-78
2021/09/08 16:00:40;;;;;;;11.05;5.03;;;29.50;74.40;;;;;;6663295;89;20233;-79
2021/09/08 16:10:41;;;;;;;7.72;5.05;;;29.00;75.20;;;;;;6658275;89;20209;-79
2021/09/08 16:20:41;;;;;;;8.93;5.30;;;28.50;74.20;;;;;;6674265;89;20200;-78
2021/09/08 16:30:42;;;;;;;9.38;5.72;;;28.50;74.80;;;;;;6683973;89;20990;-80
2021/09/08 16:40:43;;;;;;;22.73;15.97;;;28.50;78.10;;;;;;6688609;89;20225;-78
2021/09/08 16:50:43;;;;;;;13.20;11.90;;;28.30;79.80;;;;;;6648835;89;20226;-79
2021/09/08 17:00:44;;;;;;;8.55;5.68;;;28.00;81.10;;;;;;6649147;89;20272;-79
2021/09/08 17:10:44;;;;;;;9.40;5.53;;;27.40;79.70;;;;;;6648434;89;20205;-79
2021/09/08 17:20:45;;;;;;;9.07;5.70;;;26.90;80.30;;;;;;6649478;89;20715;-79
2021/09/08 17:30:46;;;;;;;7.70;5.60;;;26.50;81.70;;;;;;6656367;89;20197;-78
2021/09/08 17:51:46;;;;;;;9.65;6.07;;;25.60;84.60;;;;;;6683442;77;20400;-80
2021/09/08 18:01:47;;;;;;;9.70;6.10;;;25.10;87.10;;;;;;6704907;88;20608;-79
2021/09/08 18:11:48;;;;;;;11.45;8.40;;;24.50;89.60;;;;;;6694072;88;20302;-80
2021/09/08 18:21:48;;;;;;;11.55;7.57;;;24.00;90.80;;;;;;6691215;88;20734;-79
2021/09/08 18:31:49;;;;;;;13.07;8.45;;;23.50;92.40;;;;;;6698164;88;20242;-79
2021/09/08 18:41:49;;;;;;;21.12;14.48;;;23.30;93.40;;;;;;6697433;88;20194;-79
2021/09/08 18:51:50;;;;;;;12.80;8.20;;;22.70;95.00;;;;;;6705092;88;20313;-79
2021/09/08 19:01:51;;;;;;;11.30;7.50;;;22.50;96.20;;;;;;6694476;88;20199;-79
2021/09/08 19:11:52;;;;;;;16.02;8.48;;;22.20;97.50;;;;;;6694001;88;20266;-79
2021/09/08 19:21:52;;;;;;;14.82;9.50;;;21.90;99.40;;;;;;6694509;88;20414;-79
2021/09/08 19:31:53;;;;;;;13.68;9.13;;;21.60;99.90;;;;;;6694697;88;20221;-79
2021/09/08 19:41:53;;;;;;;14.27;8.60;;;21.30;99.90;;;;;;6677722;89;20205;-78
2021/09/08 19:51:54;;;;;;;13.55;8.75;;;21.00;99.90;;;;;;6673133;89;21026;-80
2021/09/08 20:01:54;;;;;;;12.50;8.57;;;21.10;99.90;;;;;;6676518;89;20226;-79
2021/09/08 20:11:55;;;;;;;17.42;11.73;;;20.90;99.90;;;;;;6676225;89;20188;-78
2021/09/08 20:21:55;;;;;;;13.97;8.67;;;20.80;99.90;;;;;;6672796;89;20319;-80
2021/09/08 20:31:56;;;;;;;19.17;12.80;;;20.80;99.90;;;;;;6674570;89;20306;-80
2021/09/08 20:41:57;;;;;;;13.68;8.90;;;20.50;99.90;;;;;;6671411;89;20187;-80
2021/09/08 20:51:57;;;;;;;18.73;12.20;;;20.10;99.90;;;;;;6675784;89;20224;-80
2021/09/08 21:01:58;;;;;;;13.57;9.23;;;19.90;99.90;;;;;;6676552;89;20194;-79
2021/09/08 21:11:58;;;;;;;16.65;9.35;;;19.50;99.90;;;;;;6676998;89;20226;-78
2021/09/08 21:22:01;;;;;;;13.23;8.75;;;19.40;99.90;;;;;;6676575;89;20235;-79
2021/09/08 21:32:02;;;;;;;14.75;8.60;;;19.10;99.90;;;;;;6676537;89;20314;-79
2021/09/08 21:42:03;;;;;;;13.43;8.43;;;18.90;99.90;;;;;;6676713;89;20954;-79
2021/09/08 21:52:04;;;;;;;14.05;8.98;;;18.80;99.90;;;;;;6676936;89;20207;-79
2021/09/08 22:02:05;;;;;;;13.62;9.07;;;18.70;99.90;;;;;;6676062;89;20180;-79
2021/09/08 22:12:06;;;;;;;13.05;8.60;;;18.60;99.90;;;;;;6675422;89;20191;-79
2021/09/08 22:22:06;;;;;;;14.13;9.40;;;18.40;99.90;;;;;;6675645;89;20192;-79
2021/09/08 22:32:07;;;;;;;14.53;9.57;;;18.40;99.90;;;;;;6671773;89;20683;-79
2021/09/08 22:42:08;;;;;;;17.10;10.30;;;18.30;99.90;;;;;;6675524;89;20323;-79
2021/09/08 22:52:08;;;;;;;16.90;9.97;;;18.20;99.90;;;;;;6671572;89;20211;-79
2021/09/08 23:02:09;;;;;;;16.62;10.57;;;17.80;99.90;;;;;;6675381;89;20578;-79
2021/09/08 23:12:10;;;;;;;15.57;10.10;;;17.60;99.90;;;;;;6675440;89;20733;-79
2021/09/08 23:22:11;;;;;;;13.55;9.55;;;17.50;99.90;;;;;;6680396;89;20167;-80
2021/09/08 23:32:11;;;;;;;15.55;10.05;;;17.60;99.90;;;;;;6684007;89;20237;-80
2021/09/08 23:42:12;;;;;;;17.48;9.68;;;17.50;99.90;;;;;;6675634;89;20214;-79
